Terminal Aerodrome Forecast
Issued by NWS

Home | Current Version | Previous Version | Text Only | Print | Product List | Glossary On
Versions: 1 2 3 4 5 6 7 8 9 10 11 12 13 14 15 16 17 18 19 20 21 22 23 24 25 26 27 28 29 30 31 32 33 34 35 36 37 38 39 40 41 42 43 44 45 46 47 48 49 50
000
FTUS44 KHGX 301125
TAFUTS
TAF
KUTS 301125Z 3012/0112 18010KT P6SM VCTS SCT035CB BKN150
      TEMPO 3012/3015 VRB20G30KT 1SM +TSRA BR BKN010CB
     FM301700 22007KT P6SM VCSH BKN025
     FM301900 30004KT P6SM SCT035
     FM302100 VRB02KT P6SM FEW050
     FM010000 36005KT P6SM BKN100
     FM010900 00000KT 6SM BR SCT015=

USA.gov is the U.S. government's official web portal to all federal, state and local government web resources and services.